Time;durP1;ratioP1;P1;durP2;ratioP2;P2;SDS_P1;SDS_P2;PMS_P1;PMS_P2;Temp;Humidity;BMP_temperature;BMP_pressure;BME280_temperature;BME280_humidity;BME280_pressure;Samples;Min_cycle;Max_cycle;Signal;HPM_P1;HPM_P2
2022/11/27 00:00:58;;;;;;;24.15;12.95;;;;;;;3.52;100.00;102025.78;5015311;28;20185;-79
2022/11/27 00:03:25;;;;;;;22.70;13.18;;;;;;;3.58;100.00;102022.88;5030093;28;20049;-79
2022/11/27 00:05:55;;;;;;;23.95;12.45;;;;;;;3.53;100.00;102014.50;5028496;28;20046;-79
2022/11/27 00:08:21;;;;;;;23.52;11.95;;;;;;;3.55;100.00;102017.88;5027781;28;20042;-79
2022/11/27 00:10:48;;;;;;;27.60;11.95;;;;;;;3.57;100.00;102011.69;5020784;28;20077;-81
2022/11/27 00:13:15;;;;;;;20.55;12.05;;;;;;;3.60;100.00;102016.72;5020169;28;20046;-80
2022/11/27 00:15:42;;;;;;;22.15;11.05;;;;;;;3.54;100.00;102005.84;5018363;28;20050;-80
2022/11/27 00:18:09;;;;;;;27.63;11.80;;;;;;;3.53;100.00;102005.00;5013012;28;20469;-81
2022/11/27 00:20:35;;;;;;;22.45;11.68;;;;;;;3.57;100.00;102010.88;5020744;28;20076;-80
2022/11/27 00:23:03;;;;;;;23.52;12.00;;;;;;;3.56;100.00;102010.03;5017667;28;20133;-78
2022/11/27 00:25:30;;;;;;;27.05;11.65;;;;;;;3.56;100.00;102004.84;5015641;28;20157;-78
2022/11/27 00:27:57;;;;;;;29.45;11.15;;;;;;;3.59;100.00;102003.84;5017675;28;20128;-81
2022/11/27 00:30:23;;;;;;;24.98;10.48;;;;;;;3.54;100.00;102004.09;5020128;28;20406;-80
2022/11/27 00:32:50;;;;;;;20.35;10.60;;;;;;;3.56;100.00;101988.47;5017890;28;20106;-78
2022/11/27 00:35:17;;;;;;;25.17;10.38;;;;;;;3.55;100.00;101992.81;5015344;28;20104;-79
2022/11/27 00:37:46;;;;;;;23.52;10.90;;;;;;;3.59;100.00;101990.91;5016030;28;20145;-80
2022/11/27 00:40:14;;;;;;;20.92;10.30;;;;;;;3.56;100.00;101998.84;5015278;28;20072;-81
2022/11/27 00:42:41;;;;;;;26.00;10.48;;;;;;;3.54;100.00;101995.47;5023897;28;20081;-82
2022/11/27 00:45:09;;;;;;;24.25;10.35;;;;;;;3.52;100.00;101995.56;5023180;28;20113;-78
2022/11/27 00:47:35;;;;;;;15.63;9.73;;;;;;;3.59;100.00;101994.34;5021896;28;20104;-81
2022/11/27 00:50:03;;;;;;;17.38;9.48;;;;;;;3.63;100.00;101984.66;5001405;28;20097;-81
2022/11/27 00:52:29;;;;;;;22.08;10.35;;;;;;;3.63;100.00;101985.50;5010645;28;20057;-78
2022/11/27 00:54:56;;;;;;;17.92;9.55;;;;;;;3.61;100.00;101976.97;5021032;28;20145;-79
2022/11/27 00:57:24;;;;;;;14.85;8.65;;;;;;;3.60;100.00;101980.47;5025857;28;20049;-80
2022/11/27 00:59:51;;;;;;;23.83;10.43;;;;;;;3.64;100.00;101976.00;5023970;28;20045;-78
2022/11/27 01:02:18;;;;;;;17.17;9.25;;;;;;;3.70;100.00;101978.25;5015690;28;20220;-81
2022/11/27 01:04:45;;;;;;;32.60;10.02;;;;;;;3.76;100.00;101970.19;5019918;28;20061;-80
2022/11/27 01:07:12;;;;;;;22.33;9.02;;;;;;;3.85;100.00;101986.97;5019094;28;20061;-80
2022/11/27 01:09:39;;;;;;;17.67;8.00;;;;;;;3.88;100.00;101979.03;5019445;28;20233;-80
2022/11/27 01:12:12;;;;;;;17.23;8.88;;;;;;;3.88;100.00;101984.22;5019072;28;20046;-80
2022/11/27 01:14:40;;;;;;;19.77;7.80;;;;;;;3.87;100.00;101987.72;5017747;28;20045;-80
2022/11/27 01:17:14;;;;;;;18.52;8.63;;;;;;;3.82;100.00;101963.81;5017779;28;20041;-80
2022/11/27 01:19:41;;;;;;;15.85;7.10;;;;;;;3.95;100.00;101975.22;5013315;28;20577;-80
2022/11/27 01:22:08;;;;;;;14.82;7.20;;;;;;;3.89;100.00;101960.00;5026479;28;20053;-79
2022/11/27 01:24:37;;;;;;;15.60;7.03;;;;;;;4.07;100.00;101982.34;5016802;28;20504;-80
2022/11/27 01:27:04;;;;;;;10.48;6.55;;;;;;;4.09;100.00;101982.28;5017934;28;20070;-81
2022/11/27 01:29:30;;;;;;;14.60;6.93;;;;;;;4.03;100.00;101973.06;5017980;28;20085;-80
2022/11/27 01:31:58;;;;;;;19.02;7.00;;;;;;;4.04;100.00;101977.34;5017711;28;20081;-80
2022/11/27 01:34:25;;;;;;;15.35;6.50;;;;;;;4.04;100.00;101973.91;5017723;28;20125;-80
2022/11/27 01:36:51;;;;;;;18.23;6.18;;;;;;;3.99;100.00;101971.56;5019068;28;20133;-82
2022/11/27 01:39:20;;;;;;;13.10;7.32;;;;;;;3.95;100.00;101970.03;5019717;28;20057;-82
2022/11/27 01:41:56;;;;;;;16.70;7.22;;;;;;;3.84;100.00;101942.13;5041262;23;20128;-77
2022/11/27 01:44:47;;;;;;;18.10;7.10;;;;;;;4.02;100.00;101960.19;5011679;28;20072;-79
2022/11/27 01:47:24;;;;;;;14.80;7.15;;;;;;;3.91;100.00;101940.03;4994368;28;20129;-76
2022/11/27 01:49:53;;;;;;;15.55;6.90;;;;;;;3.96;100.00;101945.81;4992101;28;20054;-75
2022/11/27 01:52:24;;;;;;;20.95;7.55;;;;;;;3.86;100.00;101929.09;4991463;28;20137;-77
2022/11/27 01:54:56;;;;;;;16.92;7.53;;;;;;;3.99;100.00;101956.84;5009065;28;20133;-75
2022/11/27 01:57:27;;;;;;;13.43;7.13;;;;;;;3.97;100.00;101952.66;5011246;28;20520;-77
2022/11/27 01:59:58;;;;;;;14.32;6.85;;;;;;;4.03;100.00;101942.00;5010959;28;20115;-78
2022/11/27 02:02:26;;;;;;;15.80;7.00;;;;;;;4.00;100.00;101927.44;5011107;28;20465;-77
2022/11/27 02:04:54;;;;;;;15.68;6.65;;;;;;;4.00;100.00;101936.97;5011661;28;20081;-77
2022/11/27 02:07:21;;;;;;;18.27;6.65;;;;;;;3.94;100.00;101930.34;5012182;28;20088;-78
2022/11/27 02:09:48;;;;;;;16.33;6.55;;;;;;;3.94;100.00;101932.13;5011180;28;20112;-76
2022/11/27 02:12:23;;;;;;;11.88;6.47;;;;;;;3.92;100.00;101923.59;5011308;28;20137;-81
2022/11/27 02:15:00;;;;;;;17.80;7.63;;;;;;;3.91;100.00;101914.97;5011365;28;20061;-76
2022/11/27 02:17:36;;;;;;;15.43;8.35;;;;;;;3.86;100.00;101919.56;5010638;28;20524;-76
2022/11/27 02:20:23;;;;;;;13.70;6.68;;;;;;;3.82;100.00;101909.44;5010770;28;20050;-80
2022/11/27 02:23:10;;;;;;;14.02;7.00;;;;;;;3.89;100.00;101905.63;5011317;28;20085;-78
2022/11/27 02:25:46;;;;;;;15.30;6.70;;;;;;;3.85;100.00;101906.69;5010929;28;20077;-79
2022/11/27 02:28:30;;;;;;;16.65;7.85;;;;;;;3.85;100.00;101901.53;5010616;28;20141;-78
2022/11/27 02:31:06;;;;;;;21.23;8.30;;;;;;;3.77;100.00;101909.72;5012180;28;20066;-77
2022/11/27 02:33:37;;;;;;;15.00;6.45;;;;;;;3.72;100.00;101908.28;5014383;28;20156;-76
2022/11/27 02:36:09;;;;;;;14.07;7.70;;;;;;;3.70;100.00;101910.13;5014875;28;20459;-77
2022/11/27 02:38:41;;;;;;;17.92;8.40;;;;;;;3.69;100.00;101916.22;5014152;28;20451;-78
2022/11/27 02:41:13;;;;;;;15.35;6.75;;;;;;;3.73;100.00;101913.38;5014777;28;20057;-79
2022/11/27 02:43:45;;;;;;;14.23;7.53;;;;;;;3.67;100.00;101893.00;5014408;28;20141;-77
2022/11/27 02:46:14;;;;;;;19.35;8.23;;;;;;;3.66;100.00;101892.16;5014647;28;20100;-76
2022/11/27 02:48:46;;;;;;;18.00;8.02;;;;;;;3.60;100.00;101882.13;5014486;28;20115;-77
2022/11/27 02:51:15;;;;;;;15.18;8.15;;;;;;;3.69;100.00;101883.41;5014613;28;20135;-78
2022/11/27 02:53:46;;;;;;;20.40;7.75;;;;;;;3.58;100.00;101875.38;5014615;28;20132;-77
2022/11/27 02:56:17;;;;;;;20.80;8.65;;;;;;;3.59;100.00;101875.28;5003368;28;20042;-78
2022/11/27 02:58:46;;;;;;;26.27;8.77;;;;;;;3.59;100.00;101880.47;5014387;28;20668;-77
2022/11/27 03:01:15;;;;;;;20.13;8.82;;;;;;;3.67;100.00;101874.88;5014282;28;20181;-75
2022/11/27 03:03:45;;;;;;;19.17;8.27;;;;;;;3.66;100.00;101866.28;5015120;28;20057;-76
2022/11/27 03:06:17;;;;;;;24.48;9.55;;;;;;;3.62;100.00;101864.78;5014770;28;20096;-79
2022/11/27 03:08:53;;;;;;;20.20;8.95;;;;;;;3.63;100.00;101866.44;5014207;28;20133;-78
2022/11/27 03:11:21;;;;;;;22.77;9.38;;;;;;;3.61;100.00;101865.69;5014970;28;20055;-78
2022/11/27 03:13:51;;;;;;;19.08;9.63;;;;;;;3.73;100.00;101853.84;5015166;28;20077;-77
2022/11/27 03:16:28;;;;;;;22.17;10.30;;;;;;;3.66;100.00;101845.56;5015534;28;20145;-77
2022/11/27 03:19:03;;;;;;;21.55;10.00;;;;;;;3.70;100.00;101843.66;5014743;28;20487;-79
2022/11/27 03:21:34;;;;;;;24.60;9.98;;;;;;;3.67;100.00;101842.06;5014499;28;20092;-76
2022/11/27 03:24:01;;;;;;;21.73;10.73;;;;;;;3.70;100.00;101835.06;5014581;28;20046;-77
2022/11/27 03:26:28;;;;;;;24.25;10.60;;;;;;;3.66;100.00;101829.22;5014748;28;20521;-76
2022/11/27 03:28:56;;;;;;;26.95;11.68;;;;;;;3.70;100.00;101840.22;5014319;28;20104;-78
2022/11/27 03:31:26;;;;;;;27.67;11.45;;;;;;;3.78;100.00;101833.69;5014636;28;20077;-77
2022/11/27 03:33:54;;;;;;;23.08;11.13;;;;;;;3.75;100.00;101830.47;5014230;28;20127;-75
2022/11/27 03:36:21;;;;;;;27.23;11.93;;;;;;;3.80;100.00;101828.44;5014902;28;20070;-78
2022/11/27 03:38:51;;;;;;;28.70;12.35;;;;;;;3.81;100.00;101830.94;5014496;28;20069;-78
2022/11/27 03:41:24;;;;;;;24.33;11.10;;;;;;;3.84;100.00;101837.72;5014495;28;20046;-78
2022/11/27 03:44:00;;;;;;;31.90;12.35;;;;;;;3.77;100.00;101844.16;5013723;28;20133;-79
2022/11/27 03:46:46;;;;;;;24.00;11.23;;;;;;;3.81;100.00;101843.06;5014317;28;20128;-77
2022/11/27 03:49:23;;;;;;;23.02;12.38;;;;;;;3.85;100.00;101834.19;5014066;28;20132;-77
2022/11/27 03:51:58;;;;;;;23.95;12.00;;;;;;;3.83;100.00;101830.84;5014023;28;20104;-77
2022/11/27 03:54:35;;;;;;;31.60;12.55;;;;;;;3.80;100.00;101825.84;5013270;28;20423;-78
2022/11/27 03:57:09;;;;;;;24.83;12.60;;;;;;;3.83;100.00;101841.22;5013425;28;20050;-78
2022/11/27 03:59:41;;;;;;;30.25;12.82;;;;;;;3.83;100.00;101833.44;5012921;28;20512;-78
2022/11/27 04:02:13;;;;;;;27.07;11.57;;;;;;;3.82;100.00;101829.19;5013357;28;20550;-77
2022/11/27 04:04:40;;;;;;;23.77;12.60;;;;;;;3.84;100.00;101843.72;5013330;28;20053;-77
2022/11/27 04:07:06;;;;;;;25.30;12.38;;;;;;;3.86;100.00;101838.47;5012881;28;20081;-78
2022/11/27 04:09:35;;;;;;;24.30;12.07;;;;;;;3.85;100.00;101822.09;5012658;28;20134;-77
2022/11/27 04:12:02;;;;;;;21.15;11.65;;;;;;;3.86;100.00;101828.09;5013162;28;20084;-78
2022/11/27 04:14:28;;;;;;;24.98;12.02;;;;;;;3.86;100.00;101823.75;5013566;28;20058;-78
2022/11/27 04:16:56;;;;;;;26.83;12.20;;;;;;;3.84;100.00;101810.06;5013037;28;20179;-77
2022/11/27 04:19:28;;;;;;;25.38;12.65;;;;;;;3.84;100.00;101798.88;5012795;28;20049;-78
2022/11/27 04:22:00;;;;;;;25.05;12.25;;;;;;;3.84;100.00;101797.13;4993731;28;20134;-77
2022/11/27 04:24:27;;;;;;;23.27;13.23;;;;;;;3.81;100.00;101789.50;5008233;28;20459;-76
2022/11/27 04:26:53;;;;;;;26.80;12.25;;;;;;;3.88;100.00;101798.63;5012671;28;20060;-78
2022/11/27 04:29:20;;;;;;;27.63;12.30;;;;;;;3.90;100.00;101794.19;5012664;28;20085;-79
2022/11/27 04:31:47;;;;;;;25.35;12.95;;;;;;;3.89;100.00;101781.34;5012150;28;20050;-77
2022/11/27 04:34:13;;;;;;;31.45;12.90;;;;;;;3.91;100.00;101771.72;5012262;28;20050;-75
2022/11/27 04:36:41;;;;;;;25.40;12.20;;;;;;;3.92;100.00;101778.56;5012622;28;20085;-77
2022/11/27 04:39:08;;;;;;;23.48;11.77;;;;;;;3.92;100.00;101773.41;5011866;28;20057;-74
2022/11/27 04:41:35;;;;;;;27.67;13.75;;;;;;;3.87;100.00;101750.34;5012343;28;20080;-80
2022/11/27 04:44:01;;;;;;;30.92;12.40;;;;;;;3.89;100.00;101758.84;5012401;28;20132;-78
2022/11/27 04:46:28;;;;;;;31.60;13.05;;;;;;;3.89;100.00;101758.84;5012594;28;20053;-77
2022/11/27 04:48:54;;;;;;;24.33;13.00;;;;;;;3.93;100.00;101754.34;5012251;28;20129;-78
2022/11/27 04:51:21;;;;;;;24.17;12.52;;;;;;;3.92;100.00;101750.94;5012261;28;20487;-77
2022/11/27 04:53:49;;;;;;;23.83;12.93;;;;;;;3.91;100.00;101748.41;5012103;28;20126;-77
2022/11/27 04:56:16;;;;;;;22.85;12.55;;;;;;;3.93;100.00;101749.16;5012158;28;20049;-78
2022/11/27 04:58:42;;;;;;;23.17;12.43;;;;;;;3.91;100.00;101745.84;5011511;28;20046;-77
2022/11/27 05:01:09;;;;;;;27.73;12.55;;;;;;;3.91;100.00;101751.00;5012013;28;20060;-77
2022/11/27 05:03:37;;;;;;;26.80;12.82;;;;;;;3.93;100.00;101754.34;5012682;28;20057;-79
2022/11/27 05:06:04;;;;;;;22.13;11.05;;;;;;;3.95;100.00;101762.88;5012669;28;20501;-76
2022/11/27 05:08:32;;;;;;;21.63;11.95;;;;;;;3.91;100.00;101759.63;5012049;28;20073;-77
2022/11/27 05:11:02;;;;;;;26.33;13.07;;;;;;;3.90;100.00;101752.75;5012011;28;20064;-77
2022/11/27 05:13:29;;;;;;;24.50;11.63;;;;;;;3.87;100.00;101739.16;5011885;28;20141;-77
2022/11/27 05:15:56;;;;;;;22.80;11.43;;;;;;;3.92;100.00;101750.09;5011454;28;20133;-77
2022/11/27 05:18:23;;;;;;;23.98;11.57;;;;;;;3.95;100.00;101731.78;5011200;28;20493;-78
2022/11/27 05:20:56;;;;;;;23.75;11.05;;;;;;;3.99;100.00;101739.31;5011584;28;20054;-77
2022/11/27 05:23:23;;;;;;;19.73;11.50;;;;;;;3.99;100.00;101743.66;5011679;28;20524;-77
2022/11/27 05:25:49;;;;;;;22.40;11.45;;;;;;;3.98;100.00;101739.38;5011546;28;20064;-77
2022/11/27 05:28:18;;;;;;;28.05;12.23;;;;;;;3.95;100.00;101736.97;5010845;28;20591;-76
2022/11/27 05:30:44;;;;;;;21.42;10.88;;;;;;;3.96;100.00;101738.63;5010997;28;20077;-77
2022/11/27 05:33:11;;;;;;;24.88;11.98;;;;;;;3.94;100.00;101730.97;5011376;28;20056;-76
2022/11/27 05:35:37;;;;;;;21.08;10.93;;;;;;;3.95;100.00;101737.81;5011628;28;20053;-76
2022/11/27 05:38:04;;;;;;;22.52;11.00;;;;;;;3.98;100.00;101737.63;5010858;28;20048;-77
2022/11/27 05:40:31;;;;;;;20.15;10.93;;;;;;;4.02;100.00;101742.63;5011002;28;20133;-77
2022/11/27 05:42:57;;;;;;;19.58;10.95;;;;;;;3.98;100.00;101722.09;5011137;28;20061;-77
2022/11/27 05:45:25;;;;;;;23.65;12.18;;;;;;;3.99;100.00;101722.94;5011579;28;20500;-75
2022/11/27 05:47:52;;;;;;;20.20;10.55;;;;;;;3.97;100.00;101724.78;5011015;28;20148;-76
2022/11/27 05:50:18;;;;;;;23.60;10.88;;;;;;;4.02;100.00;101724.50;5011510;28;20125;-77
2022/11/27 05:52:45;;;;;;;20.75;10.80;;;;;;;4.03;100.00;101721.00;5011278;28;20540;-78
2022/11/27 05:55:12;;;;;;;22.23;11.65;;;;;;;4.03;100.00;101714.06;5011801;28;20052;-77
2022/11/27 05:57:38;;;;;;;18.70;10.45;;;;;;;4.02;100.00;101706.38;5011850;28;20489;-76
2022/11/27 06:00:07;;;;;;;22.60;10.27;;;;;;;4.01;100.00;101700.38;5011543;28;20080;-79
2022/11/27 06:02:35;;;;;;;21.90;11.18;;;;;;;4.03;100.00;101702.88;4991990;28;20096;-79
2022/11/27 06:05:01;;;;;;;18.50;10.13;;;;;;;4.06;100.00;101700.94;5005792;28;20133;-77
2022/11/27 06:07:28;;;;;;;19.95;10.23;;;;;;;4.06;100.00;101695.75;5015458;28;20137;-76
2022/11/27 06:09:55;;;;;;;21.98;10.63;;;;;;;4.06;100.00;101690.59;5015074;28;20535;-74
2022/11/27 06:12:21;;;;;;;19.20;10.05;;;;;;;4.06;100.00;101681.97;5015546;28;20414;-77
2022/11/27 06:14:48;;;;;;;19.33;10.60;;;;;;;4.08;100.00;101686.16;5015491;28;20132;-79
2022/11/27 06:17:15;;;;;;;16.20;9.20;;;;;;;4.07;100.00;101689.66;5015079;28;20560;-78
2022/11/27 06:19:43;;;;;;;16.90;9.60;;;;;;;4.06;100.00;101677.63;5014670;28;20452;-77
2022/11/27 06:22:10;;;;;;;17.33;9.38;;;;;;;4.11;100.00;101680.78;5014485;28;20535;-75
2022/11/27 06:24:36;;;;;;;18.33;8.75;;;;;;;4.17;100.00;101693.41;5014719;28;20096;-80
2022/11/27 06:27:03;;;;;;;14.90;9.48;;;;;;;4.13;100.00;101673.78;5014689;28;20085;-77
2022/11/27 06:29:30;;;;;;;19.42;9.75;;;;;;;4.14;100.00;101659.06;5014994;28;20082;-76
2022/11/27 06:31:57;;;;;;;20.98;9.88;;;;;;;4.19;100.00;101678.59;5015190;28;20246;-74
2022/11/27 06:34:23;;;;;;;15.23;8.73;;;;;;;4.21;100.00;101666.38;5015292;28;20045;-79
2022/11/27 06:36:51;;;;;;;13.48;8.55;;;;;;;4.20;100.00;101664.72;5014660;28;20142;-75
2022/11/27 06:39:18;;;;;;;17.42;9.00;;;;;;;4.20;100.00;101656.94;5013836;28;20129;-77
2022/11/27 06:41:44;;;;;;;14.50;8.55;;;;;;;4.22;100.00;101649.91;5014696;28;20553;-76
2022/11/27 06:44:11;;;;;;;16.42;8.38;;;;;;;4.23;100.00;101650.75;5014958;28;20096;-77
2022/11/27 06:46:37;;;;;;;17.02;9.10;;;;;;;4.26;100.00;101638.44;5014332;28;20435;-77
2022/11/27 06:49:04;;;;;;;16.70;8.88;;;;;;;4.25;100.00;101636.75;5013769;28;20132;-77
2022/11/27 06:51:34;;;;;;;16.55;9.48;;;;;;;4.25;100.00;101631.56;5014622;28;20571;-77
2022/11/27 06:54:03;;;;;;;15.52;8.73;;;;;;;4.28;100.00;101641.75;5014727;28;20053;-77
2022/11/27 06:56:31;;;;;;;17.23;8.38;;;;;;;4.23;100.00;101628.28;5014818;28;20141;-75
2022/11/27 06:58:59;;;;;;;20.50;10.13;;;;;;;4.26;100.00;101632.41;5014240;28;20472;-77
2022/11/27 07:01:28;;;;;;;17.75;8.30;;;;;;;4.29;100.00;101635.66;5013830;28;20490;-78
2022/11/27 07:03:55;;;;;;;15.15;8.48;;;;;;;4.30;100.00;101631.31;5014154;28;20057;-78
2022/11/27 07:06:24;;;;;;;19.60;9.40;;;;;;;4.27;100.00;101621.97;5013826;28;20089;-76
2022/11/27 07:08:51;;;;;;;17.02;8.95;;;;;;;4.32;100.00;101625.09;5013417;28;20085;-79
2022/11/27 07:11:21;;;;;;;15.32;8.25;;;;;;;4.32;100.00;101625.09;5013692;28;20092;-77
2022/11/27 07:13:49;;;;;;;13.75;7.88;;;;;;;4.34;100.00;101615.50;5014027;28;20100;-78
2022/11/27 07:16:17;;;;;;;21.77;8.65;;;;;;;4.37;100.00;101598.94;5013605;28;20480;-77
2022/11/27 07:18:45;;;;;;;17.90;8.88;;;;;;;4.43;100.00;101598.56;5013116;28;20081;-76
2022/11/27 07:21:12;;;;;;;15.85;8.05;;;;;;;4.48;100.00;101600.88;5014083;28;20093;-78
2022/11/27 07:23:39;;;;;;;14.88;8.25;;;;;;;4.50;100.00;101589.50;5013169;28;20050;-75
2022/11/27 07:26:06;;;;;;;15.75;8.57;;;;;;;4.53;100.00;101593.66;5013841;28;20377;-77
2022/11/27 07:28:35;;;;;;;13.88;8.20;;;;;;;4.57;100.00;101580.41;5012993;28;20148;-77
2022/11/27 07:31:02;;;;;;;15.38;7.90;;;;;;;4.60;100.00;101580.22;5013313;28;20050;-78
2022/11/27 07:33:29;;;;;;;11.05;7.78;;;;;;;4.60;100.00;101576.81;5013196;28;20056;-78
2022/11/27 07:35:59;;;;;;;13.70;7.03;;;;;;;4.68;100.00;101581.53;5013434;28;20139;-79
2022/11/27 07:38:26;;;;;;;13.82;7.40;;;;;;;4.67;100.00;101585.88;5012832;28;20077;-78
2022/11/27 07:40:52;;;;;;;15.98;7.82;;;;;;;4.68;100.00;101571.97;5013615;28;20054;-78
2022/11/27 07:43:20;;;;;;;13.10;7.93;;;;;;;4.68;100.00;101566.78;5009887;23;20583;-90
2022/11/27 07:45:48;;;;;;;12.43;7.97;;;;;;;4.77;100.00;101571.38;4998875;28;20098;-88
2022/11/27 07:48:15;;;;;;;15.75;8.43;;;;;;;4.77;100.00;101581.75;4998433;28;20073;-88
2022/11/27 07:50:41;;;;;;;13.35;7.90;;;;;;;4.66;100.00;101551.34;4999002;28;20077;-88
2022/11/27 07:53:08;;;;;;;15.23;7.55;;;;;;;4.83;100.00;101573.59;4997790;28;20085;-88
2022/11/27 07:55:37;;;;;;;11.95;7.78;;;;;;;4.85;100.00;101565.72;5040875;23;20082;-82
2022/11/27 07:58:03;;;;;;;12.48;7.47;;;;;;;4.95;100.00;101575.44;5026117;28;20110;-81
2022/11/27 08:00:30;;;;;;;14.52;7.68;;;;;;;4.96;100.00;101579.69;5020892;28;20432;-80
2022/11/27 08:02:58;;;;;;;15.48;7.90;;;;;;;5.00;99.45;101565.59;5020738;28;20100;-80
2022/11/27 08:05:25;;;;;;;15.80;7.43;;;;;;;5.06;99.17;101587.72;5020104;28;20054;-79
2022/11/27 08:07:52;;;;;;;11.98;7.20;;;;;;;5.13;99.16;101562.22;5019579;28;20133;-78
2022/11/27 08:10:19;;;;;;;14.63;7.45;;;;;;;5.10;98.68;101567.59;5029371;23;20141;-77
2022/11/27 08:12:45;;;;;;;14.82;8.45;;;;;;;5.17;98.72;101568.88;5012407;28;20133;-77
2022/11/27 08:15:12;;;;;;;17.63;9.80;;;;;;;5.19;98.30;101580.84;5015363;28;20136;-77
2022/11/27 08:17:39;;;;;;;15.60;8.70;;;;;;;5.25;98.77;101587.38;5024601;28;20677;-77
2022/11/27 08:20:09;;;;;;;20.08;9.38;;;;;;;5.20;98.07;101569.50;5014274;28;20131;-75
2022/11/27 08:22:37;;;;;;;15.15;7.10;;;;;;;5.28;98.17;101558.63;5012756;28;20056;-77
2022/11/27 08:25:25;;;;;;;14.55;7.85;;;;;;;5.34;97.95;101560.81;5012630;28;20111;-79
2022/11/27 08:27:52;;;;;;;14.65;7.45;;;;;;;5.24;97.64;101526.84;4991813;28;20042;-77
2022/11/27 08:30:22;;;;;;;13.23;8.40;;;;;;;5.46;97.80;101567.00;4992879;28;20050;-77
2022/11/27 08:32:49;;;;;;;17.83;8.65;;;;;;;5.50;97.31;101573.66;5010826;28;20057;-76
2022/11/27 08:35:21;;;;;;;12.77;7.30;;;;;;;5.50;97.34;101573.66;5013247;28;20111;-75
2022/11/27 08:37:51;;;;;;;15.32;7.90;;;;;;;5.56;97.13;101579.28;5025632;28;20060;-75
2022/11/27 08:40:18;;;;;;;15.52;7.72;;;;;;;5.69;96.78;101576.69;5015571;28;20068;-75
2022/11/27 08:42:48;;;;;;;12.00;7.68;;;;;;;5.63;96.70;101577.94;5011464;28;20046;-76
2022/11/27 08:45:16;;;;;;;14.48;7.60;;;;;;;5.70;96.78;101573.16;5011015;28;20413;-76
2022/11/27 08:47:45;;;;;;;13.77;7.55;;;;;;;5.78;96.64;101578.66;5011116;28;20401;-77
2022/11/27 08:50:12;;;;;;;12.10;8.05;;;;;;;5.79;96.83;101566.50;5009700;28;20044;-78
2022/11/27 08:52:43;;;;;;;13.85;8.25;;;;;;;5.78;96.77;101562.25;5011208;28;20057;-76
2022/11/27 08:55:13;;;;;;;15.38;7.70;;;;;;;5.85;96.49;101563.50;5010781;28;20062;-76
2022/11/27 08:57:40;;;;;;;14.15;7.90;;;;;;;5.86;96.59;101562.56;5010533;28;20100;-77
2022/11/27 09:00:09;;;;;;;14.38;7.93;;;;;;;5.82;96.55;101558.53;5010033;28;20058;-78
2022/11/27 09:02:39;;;;;;;15.93;8.30;;;;;;;5.83;95.96;101555.81;5010711;28;20146;-77
2022/11/27 09:05:09;;;;;;;15.07;8.30;;;;;;;5.88;96.07;101543.34;5010030;28;20157;-79
2022/11/27 09:07:47;;;;;;;;;;;;;;;;;;;;;
2022/11/27 09:10:23;;;;;;;15.60;8.35;;;;;;;5.97;95.74;101540.19;5009712;28;20041;-77
2022/11/27 09:12:55;;;;;;;13.55;9.18;;;;;;;5.95;95.79;101536.00;5010917;28;20057;-78
2022/11/27 09:15:23;;;;;;;13.05;7.75;;;;;;;5.94;95.69;101537.78;5010175;28;20115;-80
2022/11/27 09:17:50;;;;;;;13.10;7.65;;;;;;;6.07;95.57;101529.16;5009869;28;20049;-80
2022/11/27 09:20:19;;;;;;;12.93;8.35;;;;;;;6.10;95.21;101531.56;5010551;28;20298;-78
2022/11/27 09:22:46;;;;;;;21.10;9.25;;;;;;;6.08;94.79;101516.06;5010573;28;20053;-78
2022/11/27 09:25:30;;;;;;;13.93;8.45;;;;;;;6.14;94.65;101523.44;5010105;28;20050;-79
2022/11/27 09:27:59;;;;;;;12.95;7.72;;;;;;;6.23;94.75;101512.38;5009286;28;20042;-78
2022/11/27 09:30:29;;;;;;;11.60;7.10;;;;;;;6.23;94.47;101494.19;5009869;28;20173;-78
2022/11/27 09:33:00;;;;;;;12.98;7.78;;;;;;;6.32;93.87;101513.53;5010191;28;20049;-78
2022/11/27 09:35:27;;;;;;;12.63;7.28;;;;;;;6.42;93.36;101517.13;5009685;28;20512;-80
2022/11/27 09:38:03;;;;;;;14.38;7.85;;;;;;;6.47;93.16;101496.84;5012074;28;20132;-78
2022/11/27 09:40:35;;;;;;;15.30;7.88;;;;;;;6.56;92.71;101505.78;5011009;28;20504;-78
2022/11/27 09:43:08;;;;;;;11.77;7.60;;;;;;;6.68;92.18;101499.69;5006587;28;20057;-78
2022/11/27 09:45:41;;;;;;;13.93;7.13;;;;;;;6.63;92.12;101497.41;5013470;28;20045;-78
2022/11/27 09:51:43;;;;;;;13.02;7.88;;;;;;;6.78;92.09;101503.28;4962531;28;20516;-79
2022/11/27 09:57:43;;;;;;;10.90;7.38;;;;;;;6.74;91.88;101499.25;4982286;28;20054;-80
2022/11/27 10:00:19;;;;;;;12.95;7.13;;;;;;;6.65;91.80;101473.88;5008411;28;20144;-80
2022/11/27 10:02:53;;;;;;;13.10;8.00;;;;;;;6.74;91.70;101472.41;5015643;28;20093;-80
2022/11/27 10:05:42;;;;;;;15.70;7.95;;;;;;;6.74;91.35;101488.84;5016126;28;20046;-80
2022/11/27 10:08:43;;;;;;;14.45;7.75;;;;;;;6.74;91.44;101473.22;5013714;28;20096;-80
2022/11/27 10:11:40;;;;;;;16.15;8.00;;;;;;;6.82;91.40;101472.69;5014775;28;20049;-79
2022/11/27 10:14:42;;;;;;;12.57;8.18;;;;;;;6.85;91.50;101475.91;5016009;28;20060;-80
2022/11/27 10:20:13;;;;;;;17.80;8.73;;;;;;;6.84;91.30;101469.03;5052025;23;20061;-80
2022/11/27 10:22:50;;;;;;;13.68;8.32;;;;;;;6.84;91.48;101463.81;5003023;28;20137;-81
2022/11/27 10:25:19;;;;;;;14.90;8.32;;;;;;;6.83;91.63;101462.16;5003756;28;20140;-80
2022/11/27 10:28:00;;;;;;;18.98;9.48;;;;;;;6.87;91.52;101457.56;5006053;28;20175;-81
2022/11/27 10:30:30;;;;;;;12.02;8.23;;;;;;;6.87;91.27;101448.00;5003107;28;20476;-81
2022/11/27 10:32:59;;;;;;;14.88;8.45;;;;;;;6.89;91.41;101455.69;5006321;28;20046;-80
2022/11/27 10:35:28;;;;;;;13.88;8.55;;;;;;;6.93;91.54;101452.75;5004946;28;20058;-80
2022/11/27 10:37:58;;;;;;;14.57;8.75;;;;;;;6.89;91.96;101440.06;5002757;28;20137;-79
2022/11/27 10:40:29;;;;;;;14.35;8.68;;;;;;;6.94;91.92;101438.81;4998170;28;20107;-79
2022/11/27 10:43:04;;;;;;;16.95;9.13;;;;;;;6.96;91.88;101447.31;4986903;28;20497;-79
2022/11/27 10:45:42;;;;;;;17.10;9.43;;;;;;;7.01;92.00;101438.34;4991977;28;20061;-79
2022/11/27 10:48:09;;;;;;;14.48;9.32;;;;;;;7.03;91.73;101431.25;4994565;28;20064;-80
2022/11/27 10:50:36;;;;;;;15.98;8.98;;;;;;;7.14;91.80;101431.28;4998788;28;20081;-80
2022/11/27 10:53:06;;;;;;;14.45;9.52;;;;;;;7.08;91.40;101416.97;5002408;28;20141;-80
2022/11/27 10:55:50;;;;;;;17.00;9.00;;;;;;;7.14;91.35;101413.06;5001284;28;20077;-80
2022/11/27 10:58:23;;;;;;;14.43;8.80;;;;;;;7.18;91.07;101406.69;5000127;28;20050;-79
2022/11/27 11:01:02;;;;;;;15.80;9.75;;;;;;;7.19;91.41;101405.72;5002624;28;20057;-79
2022/11/27 11:03:28;;;;;;;13.32;9.20;;;;;;;7.23;90.85;101407.16;4999514;28;20069;-80
2022/11/27 11:05:58;;;;;;;17.80;9.27;;;;;;;7.25;90.54;101389.66;4998543;28;20129;-80
2022/11/27 11:08:25;;;;;;;28.38;17.52;;;;;;;7.27;90.36;101396.41;4993383;28;20057;-83
2022/11/27 11:10:54;;;;;;;15.73;8.60;;;;;;;7.32;89.97;101396.06;5002721;28;20129;-78
2022/11/27 11:13:26;;;;;;;16.92;12.15;;;;;;;7.32;89.70;101370.03;5000353;28;20104;-78
2022/11/27 11:15:55;;;;;;;17.88;10.63;;;;;;;7.38;89.16;101366.97;5001478;28;20077;-78
2022/11/27 11:18:27;;;;;;;15.45;8.23;;;;;;;7.38;88.62;101358.31;4997828;28;20061;-77
2022/11/27 11:20:56;;;;;;;13.93;8.32;;;;;;;7.41;88.44;101353.72;4995797;28;20140;-77
2022/11/27 11:29:43;;;;;;;16.15;8.50;;;;;;;7.43;87.25;101317.97;4976195;28;20581;-79
2022/11/27 11:32:14;;;;;;;15.30;8.27;;;;;;;7.51;87.19;101348.63;4983796;28;20042;-79
2022/11/27 11:34:52;;;;;;;15.18;8.00;;;;;;;7.48;87.01;101312.41;4996864;28;20085;-79
2022/11/27 12:37:34;;;;;;;10.05;6.47;;;;;;;8.34;81.59;101189.06;5171430;22;20120;-78
2022/11/27 12:40:15;;;;;;;10.57;5.78;;;;;;;8.29;81.26;101184.22;4974861;28;20114;-81
2022/11/27 12:42:50;;;;;;;12.27;6.63;;;;;;;8.31;81.14;101171.88;4960147;28;20126;-80
2022/11/27 12:45:21;;;;;;;8.90;6.35;;;;;;;8.36;81.42;101187.16;4978983;28;20083;-80